createdAt,value
2018-06-03T00:02:23.369Z,28.60
2018-06-03T00:04:51.866Z,27.52
2018-06-03T00:07:20.375Z,26.62
2018-06-03T00:09:48.931Z,30.70
2018-06-03T00:12:17.617Z,29.15
2018-06-03T00:14:46.166Z,36.35
2018-06-03T00:17:15.001Z,32.58
2018-06-03T00:19:43.533Z,28.55
2018-06-03T00:22:22.218Z,30.80
2018-06-03T00:24:51.085Z,28.40
2018-06-03T00:27:20.199Z,30.65
2018-06-03T00:29:48.682Z,36.93
2018-06-03T00:32:17.509Z,34.00
2018-06-03T00:34:46.038Z,31.73
2018-06-03T00:37:14.529Z,28.38
2018-06-03T00:39:43.014Z,30.23
2018-06-03T00:42:12.044Z,29.25
2018-06-03T00:44:40.602Z,32.38
2018-06-03T00:47:09.462Z,31.02
2018-06-03T00:52:32.892Z,30.23
2018-06-03T00:55:01.378Z,32.55
2018-06-03T00:57:30.213Z,29.18
2018-06-03T00:59:58.685Z,29.25
2018-06-03T01:02:27.186Z,32.65
2018-06-03T01:04:55.662Z,29.52
2018-06-03T01:07:24.144Z,31.15
2018-06-03T01:09:52.614Z,30.97
2018-06-03T01:12:21.135Z,36.58
2018-06-03T01:14:49.658Z,43.85
2018-06-03T01:17:18.208Z,42.88
2018-06-03T01:19:46.725Z,37.25
2018-06-03T01:22:15.278Z,36.03
2018-06-03T01:24:43.821Z,37.25
2018-06-03T01:27:12.615Z,36.10
2018-06-03T01:29:41.448Z,38.25
2018-06-03T01:32:09.936Z,38.30
2018-06-03T01:34:38.427Z,39.20
2018-06-03T01:37:06.946Z,42.85
2018-06-03T01:39:35.417Z,42.03
2018-06-03T01:42:03.940Z,44.55
2018-06-03T01:44:32.753Z,38.78
2018-06-03T01:47:01.325Z,41.13
2018-06-03T01:49:29.804Z,44.08
2018-06-03T01:51:58.340Z,41.85
2018-06-03T01:54:26.894Z,41.63
2018-06-03T01:56:55.553Z,35.80
2018-06-03T01:59:24.055Z,45.45
2018-06-03T02:01:52.940Z,43.92
2018-06-03T02:04:21.229Z,46.48
2018-06-03T02:06:49.723Z,47.40
2018-06-03T02:09:18.903Z,46.35
2018-06-03T02:11:47.441Z,45.95
2018-06-03T02:14:16.549Z,47.15
2018-06-03T02:16:45.030Z,39.40
2018-06-03T02:19:13.510Z,42.78
2018-06-03T02:21:42.589Z,46.23
2018-06-03T02:24:11.155Z,44.53
2018-06-03T02:26:39.673Z,47.35
2018-06-03T02:29:08.523Z,40.70
2018-06-03T02:31:37.051Z,48.05
2018-06-03T02:34:05.541Z,42.70
2018-06-03T02:36:34.357Z,49.05
2018-06-03T02:39:03.189Z,49.30
2018-06-03T02:41:31.690Z,47.27
2018-06-03T02:44:00.190Z,44.33
2018-06-03T02:46:28.678Z,49.63
2018-06-03T02:48:57.201Z,51.20
2018-06-03T02:51:25.709Z,49.77
2018-06-03T02:53:54.561Z,45.52
2018-06-03T02:56:23.071Z,51.75
2018-06-03T02:58:51.565Z,48.58
2018-06-03T03:01:20.105Z,43.68
2018-06-03T03:03:48.599Z,54.48
2018-06-03T03:06:17.137Z,51.85
2018-06-03T03:08:46.065Z,45.90
2018-06-03T03:11:14.354Z,48.08
2018-06-03T03:13:43.194Z,41.83
2018-06-03T03:16:25.095Z,48.42
2018-06-03T03:18:53.607Z,50.45
2018-06-03T03:21:22.147Z,46.53
2018-06-03T03:23:50.636Z,46.10
2018-06-03T03:26:19.501Z,44.53
2018-06-03T03:28:48.047Z,47.27
2018-06-03T03:31:16.570Z,54.75
2018-06-03T03:33:45.101Z,45.03
2018-06-03T03:36:13.625Z,43.80
2018-06-03T03:38:42.102Z,41.75
2018-06-03T03:41:10.610Z,41.18
2018-06-03T03:43:39.117Z,43.38
2018-06-03T03:46:07.670Z,46.50
2018-06-03T03:48:36.529Z,48.38
2018-06-03T03:51:05.085Z,47.25
2018-06-03T03:53:33.743Z,44.95
2018-06-03T03:56:02.249Z,46.02
2018-06-03T03:58:30.783Z,49.38
2018-06-03T04:00:59.286Z,46.85
2018-06-03T04:03:27.785Z,45.48
2018-06-03T04:05:56.283Z,53.58
2018-06-03T04:08:24.754Z,51.60
2018-06-03T04:10:53.247Z,45.80
2018-06-03T04:13:21.731Z,46.92
2018-06-03T04:15:50.567Z,54.42
2018-06-03T04:18:19.042Z,46.10
2018-06-03T04:20:47.522Z,44.10
2018-06-03T04:23:15.993Z,48.35
2018-06-03T04:25:44.486Z,50.65
2018-06-03T04:28:12.946Z,43.17
2018-06-03T04:30:41.424Z,47.45
2018-06-03T04:33:09.883Z,48.02
2018-06-03T04:35:39.363Z,47.73
2018-06-03T04:38:07.813Z,51.50
2018-06-03T04:40:36.292Z,52.08
2018-06-03T04:43:04.804Z,50.75
2018-06-03T04:45:33.297Z,43.15
2018-06-03T04:48:02.092Z,44.95
2018-06-03T04:50:30.578Z,47.45
2018-06-03T04:52:59.090Z,45.15
2018-06-03T04:55:27.561Z,49.67
2018-06-03T04:57:56.270Z,47.05
2018-06-03T05:00:24.733Z,47.78
2018-06-03T05:02:53.184Z,43.55
2018-06-03T05:05:21.658Z,47.95
2018-06-03T05:07:50.175Z,44.83
2018-06-03T05:10:18.641Z,44.55
2018-06-03T05:12:47.442Z,45.50
2018-06-03T05:15:47.054Z,45.20
2018-06-03T05:18:15.914Z,46.33
2018-06-03T05:22:08.876Z,44.42
2018-06-03T05:24:37.511Z,47.85
2018-06-03T05:27:05.989Z,48.63
2018-06-03T05:29:34.481Z,48.33
2018-06-03T05:32:03.145Z,42.45
2018-06-03T05:34:31.617Z,42.38
2018-06-03T05:37:00.109Z,44.00
2018-06-03T05:39:28.930Z,45.70
2018-06-03T05:41:57.427Z,45.73
2018-06-03T05:44:25.886Z,42.25
2018-06-03T05:46:54.372Z,45.67
2018-06-03T05:49:22.837Z,41.18
2018-06-03T05:51:52.221Z,39.78
2018-06-03T05:54:20.713Z,39.85
2018-06-03T05:56:49.193Z,43.33
2018-06-03T05:59:17.686Z,41.55
2018-06-03T06:01:46.509Z,37.88
2018-06-03T06:04:14.977Z,40.95
2018-06-03T06:06:44.290Z,42.23
2018-06-03T06:09:12.767Z,36.80
2018-06-03T06:11:41.249Z,41.75
2018-06-03T06:14:09.730Z,40.83
2018-06-03T06:16:38.229Z,40.23
2018-06-03T06:19:06.674Z,44.95
2018-06-03T06:21:35.133Z,40.35
2018-06-03T06:24:15.156Z,43.58
2018-06-03T06:27:07.815Z,38.20
2018-06-03T06:29:36.306Z,40.92
2018-06-03T06:32:20.698Z,46.73
2018-06-03T06:34:49.174Z,42.13
2018-06-03T06:37:17.715Z,45.03
2018-06-03T06:45:35.757Z,42.65
2018-06-03T06:48:04.227Z,41.77
2018-06-03T06:50:32.501Z,40.80
2018-06-03T06:53:00.982Z,41.02
2018-06-03T06:55:29.443Z,43.40
2018-06-03T06:57:57.946Z,39.55
2018-06-03T07:00:26.412Z,41.70
2018-06-03T07:02:56.047Z,36.75
2018-06-03T07:05:24.546Z,41.42
2018-06-03T07:07:53.000Z,37.50
2018-06-03T07:10:21.496Z,36.05
2018-06-03T07:12:50.098Z,37.23
2018-06-03T07:15:18.582Z,37.23
2018-06-03T07:17:47.034Z,38.10
2018-06-03T07:20:15.600Z,38.15
2018-06-03T07:22:44.393Z,36.77
2018-06-03T07:25:12.828Z,33.02
2018-06-03T07:27:41.297Z,35.98
2018-06-03T07:30:09.745Z,39.42
2018-06-03T07:32:38.258Z,38.65
2018-06-03T07:35:06.722Z,38.17
2018-06-03T07:37:36.732Z,37.30
2018-06-03T07:40:05.202Z,34.23
2018-06-03T07:42:33.637Z,37.20
2018-06-03T07:45:02.086Z,38.88
2018-06-03T07:47:32.014Z,36.95
2018-06-03T07:50:00.469Z,38.88
2018-06-03T07:52:29.370Z,32.95
2018-06-03T07:54:57.820Z,31.70
2018-06-03T07:57:26.264Z,32.95
2018-06-03T07:59:54.696Z,30.17
2018-06-03T08:02:23.478Z,30.97
2018-06-03T08:04:51.946Z,31.60
2018-06-03T08:07:20.406Z,33.75
2018-06-03T08:09:49.434Z,33.73
2018-06-03T08:12:17.898Z,30.80
2018-06-03T08:14:46.354Z,31.80
2018-06-03T08:17:14.837Z,26.82
2018-06-03T08:19:43.645Z,30.82
2018-06-03T08:22:12.116Z,30.88
2018-06-03T08:24:40.568Z,28.92
2018-06-03T08:27:09.036Z,29.05
2018-06-03T08:29:37.834Z,26.77
2018-06-03T08:32:06.878Z,30.00
2018-06-03T08:34:35.343Z,26.48
2018-06-03T08:37:03.820Z,25.88
2018-06-03T08:39:32.656Z,24.10
2018-06-03T08:42:01.594Z,24.90
2018-06-03T08:44:30.066Z,26.48
2018-06-03T08:46:58.529Z,28.55
2018-06-03T08:49:27.338Z,27.87
2018-06-03T08:51:55.797Z,24.65
2018-06-03T08:54:25.047Z,23.18
2018-06-03T08:56:53.710Z,28.15
2018-06-03T08:59:23.050Z,25.65
2018-06-03T09:01:51.845Z,25.80
2018-06-03T09:04:20.291Z,26.02
2018-06-03T09:06:48.765Z,25.20
2018-06-03T09:09:17.557Z,27.77
2018-06-03T09:11:46.751Z,26.68
2018-06-03T09:14:16.217Z,29.23
2018-06-03T09:16:44.686Z,32.35
2018-06-03T09:19:13.129Z,36.23
2018-06-03T09:21:41.781Z,30.02
2018-06-03T09:24:10.233Z,31.57
2018-06-03T09:26:39.047Z,33.60
2018-06-03T09:29:07.488Z,33.55
2018-06-03T09:31:35.945Z,30.80
2018-06-03T09:34:04.386Z,33.05
2018-06-03T09:36:33.146Z,41.60
2018-06-03T09:39:01.920Z,35.92
2018-06-03T09:41:30.711Z,37.15
2018-06-03T09:43:59.147Z,41.15
2018-06-03T09:46:32.886Z,41.20
2018-06-03T09:49:03.039Z,37.23
2018-06-03T09:51:31.529Z,46.35
2018-06-03T09:53:59.972Z,35.92
2018-06-03T09:56:28.539Z,29.30
2018-06-03T09:58:57.025Z,34.13
2018-06-03T10:01:25.530Z,37.95
2018-06-03T10:03:53.988Z,29.95
2018-06-03T10:06:22.456Z,32.20
2018-06-03T10:08:50.921Z,33.28
2018-06-03T10:11:19.381Z,29.27
2018-06-03T10:13:47.882Z,30.45
2018-06-03T10:16:16.376Z,27.30
2018-06-03T10:18:44.823Z,30.45
2018-06-03T10:21:13.283Z,26.60
2018-06-03T10:23:41.769Z,31.90
2018-06-03T10:26:10.257Z,27.48
2018-06-03T10:28:38.710Z,25.85
2018-06-03T10:31:07.190Z,29.20
2018-06-03T10:33:35.672Z,27.58
2018-06-03T10:36:05.002Z,26.55
2018-06-03T10:38:33.454Z,24.85
2018-06-03T10:41:01.936Z,26.25
2018-06-03T10:43:30.712Z,23.50
2018-06-03T10:45:59.202Z,29.27
2018-06-03T10:48:28.033Z,22.58
2018-06-03T10:50:57.055Z,26.17
2018-06-03T10:53:25.520Z,23.15
2018-06-03T10:55:54.047Z,22.90
2018-06-03T10:58:22.541Z,20.55
2018-06-03T11:00:51.070Z,21.50
2018-06-03T11:03:19.909Z,19.87
2018-06-03T11:05:48.914Z,21.00
2018-06-03T11:08:17.357Z,20.02
2018-06-03T11:10:45.808Z,16.35
2018-06-03T11:13:14.252Z,18.17
2018-06-03T11:15:42.915Z,15.98
2018-06-03T11:18:11.369Z,16.67
2018-06-03T11:20:39.842Z,16.40
2018-06-03T11:23:08.345Z,11.97
2018-06-03T11:25:36.808Z,16.02
2018-06-03T11:28:05.595Z,17.32
2018-06-03T11:30:34.378Z,18.40
2018-06-03T11:33:03.178Z,12.80
2018-06-03T11:35:31.973Z,11.30
2018-06-03T11:38:00.748Z,11.25
2018-06-03T11:40:29.210Z,17.25
2018-06-03T11:42:57.703Z,11.45
2018-06-03T11:45:26.854Z,12.90
2018-06-03T11:47:55.418Z,10.23
2018-06-03T11:50:24.305Z,12.70
2018-06-03T11:52:52.734Z,9.53
2018-06-03T11:55:21.203Z,14.73
2018-06-03T11:58:01.681Z,10.43
2018-06-03T12:03:12.936Z,8.05
2018-06-03T12:05:41.995Z,8.90
2018-06-03T12:08:10.184Z,9.87
2018-06-03T12:10:39.401Z,8.10
2018-06-03T12:13:07.835Z,9.05
2018-06-03T12:15:36.019Z,8.47
2018-06-03T12:18:04.798Z,11.75
2018-06-03T12:20:33.278Z,12.23
2018-06-03T12:23:01.451Z,10.60
2018-06-03T12:25:29.616Z,12.20
2018-06-03T12:27:57.776Z,11.27
2018-06-03T12:30:26.034Z,10.00
2018-06-03T12:32:54.319Z,10.73
2018-06-03T12:35:22.569Z,10.20
2018-06-03T12:37:52.355Z,9.77
2018-06-03T12:40:21.457Z,14.87
2018-06-03T12:42:49.992Z,10.07
2018-06-03T12:45:18.165Z,12.20
2018-06-03T12:56:45.072Z,11.77
2018-06-03T12:59:15.507Z,13.07
2018-06-03T13:01:43.706Z,9.70
2018-06-03T13:04:11.914Z,10.80
2018-06-03T13:06:40.113Z,6.70
2018-06-03T13:09:08.656Z,7.57
2018-06-03T13:11:36.899Z,10.67
2018-06-03T13:14:05.122Z,7.93
2018-06-03T13:16:33.674Z,9.23
2018-06-03T13:19:01.883Z,10.37
2018-06-03T13:21:30.566Z,8.40
2018-06-03T13:23:58.770Z,6.90
2018-06-03T13:26:26.969Z,11.30
2018-06-03T13:28:54.936Z,12.13
2018-06-03T13:31:23.128Z,10.03
2018-06-03T13:33:51.343Z,8.60
2018-06-03T13:36:19.900Z,9.60
2018-06-03T13:38:48.097Z,6.23
2018-06-03T13:41:16.685Z,10.70
2018-06-03T13:43:45.199Z,7.80
2018-06-03T13:46:13.397Z,9.63
2018-06-03T13:48:42.842Z,7.90
2018-06-03T13:51:11.034Z,8.13
2018-06-03T13:53:39.224Z,11.03
2018-06-03T13:56:07.705Z,11.97
2018-06-03T13:58:36.262Z,9.00
2018-06-03T14:01:04.433Z,8.80
2018-06-03T14:03:32.636Z,8.23
2018-06-03T14:06:00.881Z,9.80
2018-06-03T14:08:29.418Z,8.43
2018-06-03T14:10:57.616Z,7.50
2018-06-03T14:13:25.785Z,7.40
2018-06-03T14:15:54.178Z,9.73
2018-06-03T14:18:22.582Z,9.93
2018-06-03T14:20:50.786Z,7.70
2018-06-03T14:23:18.969Z,9.50
2018-06-03T14:25:47.199Z,9.00
2018-06-03T14:28:15.937Z,12.43
2018-06-03T14:30:44.901Z,9.70
2018-06-03T14:33:13.413Z,10.50
2018-06-03T14:35:41.625Z,12.70
2018-06-03T14:38:09.809Z,10.70
2018-06-03T14:40:38.026Z,14.07
2018-06-03T14:43:06.568Z,10.60
2018-06-03T14:45:34.769Z,8.43
2018-06-03T14:48:02.949Z,8.17
2018-06-03T14:50:31.190Z,7.43
2018-06-03T14:52:59.512Z,8.93
2018-06-03T14:55:28.309Z,10.00
2018-06-03T14:57:56.478Z,7.43
2018-06-03T15:00:24.622Z,9.53
2018-06-03T15:02:52.801Z,7.17
2018-06-03T15:05:20.995Z,6.93
2018-06-03T15:08:52.572Z,6.93
2018-06-03T15:11:20.787Z,6.60
2018-06-03T15:13:48.987Z,7.63
2018-06-03T15:16:17.165Z,7.67
2018-06-03T15:18:45.560Z,6.73
2018-06-03T15:21:13.849Z,7.20
2018-06-03T15:23:42.849Z,7.50
2018-06-03T15:26:11.073Z,7.63
2018-06-03T15:28:39.786Z,10.00
2018-06-03T15:31:07.981Z,6.10
2018-06-03T15:33:36.162Z,7.80
2018-06-03T15:36:04.697Z,7.57
2018-06-03T15:38:33.241Z,8.90
2018-06-03T15:41:03.306Z,7.93
2018-06-03T15:43:31.525Z,8.27
2018-06-03T15:45:59.731Z,7.63
2018-06-03T15:48:27.916Z,8.93
2018-06-03T15:50:56.094Z,8.33
2018-06-03T15:53:24.293Z,5.77
2018-06-03T15:55:52.755Z,6.80
2018-06-03T15:58:21.293Z,13.10
2018-06-03T16:00:49.723Z,6.30
2018-06-03T16:03:18.424Z,6.20
2018-06-03T16:05:48.583Z,6.17
2018-06-03T16:08:17.029Z,6.25
2018-06-03T16:10:45.217Z,7.70
2018-06-03T16:13:13.409Z,7.43
2018-06-03T16:15:42.325Z,8.57
2018-06-03T16:18:10.511Z,6.50
2018-06-03T16:20:38.728Z,6.37
2018-06-03T16:23:06.896Z,7.10
2018-06-03T16:25:35.799Z,7.73
2018-06-03T16:28:04.603Z,7.80
2018-06-03T16:30:33.984Z,7.70
2018-06-03T16:33:02.317Z,8.13
2018-06-03T16:35:30.550Z,7.43
2018-06-03T16:37:58.780Z,9.20
2018-06-03T16:40:27.455Z,9.88
2018-06-03T16:42:55.783Z,8.60
2018-06-03T16:45:23.971Z,6.70
2018-06-03T16:47:52.139Z,11.83
2018-06-03T16:50:20.715Z,8.73
2018-06-03T16:52:48.902Z,7.53
2018-06-03T16:55:17.138Z,7.37
2018-06-03T16:57:45.826Z,9.07
2018-06-03T17:00:15.911Z,7.90
2018-06-03T17:02:44.114Z,8.40
2018-06-03T17:05:12.281Z,7.97
2018-06-03T17:07:40.588Z,7.60
2018-06-03T17:10:10.471Z,7.83
2018-06-03T17:12:39.347Z,7.70
2018-06-03T17:15:08.777Z,10.70
2018-06-03T17:17:36.983Z,7.90
2018-06-03T17:20:05.149Z,9.40
2018-06-03T17:22:33.329Z,8.27
2018-06-03T17:25:01.886Z,7.13
2018-06-03T17:27:30.941Z,7.20
2018-06-03T17:29:59.113Z,6.70
2018-06-03T17:32:27.646Z,7.73
2018-06-03T17:34:56.689Z,7.90
2018-06-03T17:37:25.528Z,9.27
2018-06-03T17:39:53.693Z,8.00
2018-06-03T17:42:21.882Z,6.50
2018-06-03T17:44:50.151Z,8.30
2018-06-03T17:47:18.341Z,8.03
2018-06-03T17:49:49.881Z,7.90
2018-06-03T17:52:19.590Z,8.60
2018-06-03T18:00:03.420Z,8.00
2018-06-03T18:02:31.646Z,8.17
2018-06-03T18:05:00.183Z,8.10
2018-06-03T18:07:29.701Z,9.25
2018-06-03T18:09:58.239Z,11.50
2018-06-03T18:12:28.057Z,8.53
2018-06-03T18:14:56.822Z,8.38
2018-06-03T18:17:25.010Z,8.57
2018-06-03T18:19:53.990Z,8.17
2018-06-03T18:22:22.186Z,8.50
2018-06-03T18:24:51.221Z,7.92
2018-06-03T18:27:19.730Z,13.37
2018-06-03T18:29:47.906Z,7.53
2018-06-03T18:32:16.374Z,8.40
2018-06-03T18:34:45.239Z,7.67
2018-06-03T18:37:13.773Z,8.83
2018-06-03T18:39:41.980Z,8.53
2018-06-03T18:42:10.193Z,8.60
2018-06-03T18:44:38.754Z,8.80
2018-06-03T18:47:06.981Z,7.83
2018-06-03T18:49:35.209Z,8.13
2018-06-03T18:52:04.068Z,9.13
2018-06-03T18:54:32.243Z,7.97
2018-06-03T18:57:00.908Z,8.50
2018-06-03T18:59:30.338Z,8.53
2018-06-03T19:01:58.923Z,10.00
2018-06-03T19:04:28.738Z,9.30
2018-06-03T19:06:58.453Z,8.68
2018-06-03T19:09:27.237Z,8.80
2018-06-03T19:11:59.615Z,9.83
2018-06-03T19:14:31.778Z,7.97
2018-06-03T19:19:42.062Z,8.60
2018-06-03T19:22:10.859Z,9.33
2018-06-03T19:24:42.055Z,9.27
2018-06-03T19:27:10.905Z,8.78
2018-06-03T19:29:39.092Z,9.20
2018-06-03T19:32:07.885Z,9.63
2018-06-03T19:34:36.857Z,11.22
2018-06-03T19:37:05.754Z,9.25
2018-06-03T19:39:34.610Z,9.03
2018-06-03T19:42:03.132Z,10.53
2018-06-03T19:44:31.644Z,10.48
2018-06-03T19:47:00.500Z,11.33
2018-06-03T19:49:29.050Z,10.10
2018-06-03T19:51:57.517Z,11.57
2018-06-03T19:54:26.058Z,15.53
2018-06-03T19:56:54.536Z,11.60
2018-06-03T19:59:23.057Z,9.80
2018-06-03T20:02:05.223Z,10.40
2018-06-03T20:07:24.905Z,11.48
2018-06-03T20:09:53.384Z,12.15
2018-06-03T20:12:21.863Z,11.85
2018-06-03T20:14:50.392Z,11.90
2018-06-03T20:17:45.535Z,13.83
2018-06-03T20:20:21.328Z,11.73
2018-06-03T20:23:01.931Z,11.55
2018-06-03T20:25:30.406Z,12.40
2018-06-03T20:28:19.663Z,11.33
2018-06-03T20:30:48.148Z,11.63
2018-06-03T20:33:16.686Z,10.78
2018-06-03T20:35:45.272Z,10.88
2018-06-03T20:38:13.947Z,12.13
2018-06-03T20:41:01.025Z,14.28
2018-06-03T20:43:35.273Z,12.25
2018-06-03T20:46:04.689Z,13.50
2018-06-03T20:48:35.095Z,14.20
2018-06-03T20:51:04.418Z,13.22
2018-06-03T20:53:33.429Z,12.60
2018-06-03T20:56:02.034Z,13.35
2018-06-03T20:58:30.591Z,18.20
2018-06-03T21:00:58.840Z,13.53
2018-06-03T21:03:27.315Z,14.35
2018-06-03T21:05:55.801Z,13.85
2018-06-03T21:08:25.023Z,13.90
2018-06-03T21:11:03.160Z,13.28
2018-06-03T21:16:07.279Z,14.38
2018-06-03T21:18:38.085Z,14.28
2018-06-03T21:23:57.492Z,17.55
2018-06-03T21:26:26.253Z,14.33
2018-06-03T21:28:54.810Z,15.10
2018-06-03T21:31:23.298Z,15.72
2018-06-03T21:33:51.919Z,14.65
2018-06-03T21:36:21.415Z,15.58
2018-06-03T21:38:50.486Z,15.10
2018-06-03T21:41:20.515Z,14.95
2018-06-03T21:43:49.025Z,17.57
2018-06-03T21:46:17.635Z,13.90
2018-06-03T21:48:46.169Z,16.87
2018-06-03T21:51:15.023Z,17.27
2018-06-03T21:53:45.206Z,14.90
2018-06-03T21:56:14.505Z,14.87
2018-06-03T21:58:43.706Z,15.65
2018-06-03T22:01:12.207Z,16.60
2018-06-03T22:03:40.699Z,14.83
2018-06-03T22:06:10.057Z,15.00
2018-06-03T22:08:38.966Z,16.77
2018-06-03T22:11:07.770Z,14.93
2018-06-03T22:13:36.495Z,15.98
2018-06-03T22:16:05.306Z,17.98
2018-06-03T22:18:34.969Z,18.60
2018-06-03T22:21:04.458Z,16.90
2018-06-03T22:23:32.970Z,19.32
2018-06-03T22:26:01.541Z,16.25
2018-06-03T22:28:30.765Z,16.73
2018-06-03T22:31:00.537Z,18.05
2018-06-03T22:33:29.320Z,16.90
2018-06-03T22:35:57.781Z,17.62
2018-06-03T22:38:26.244Z,17.50
2018-06-03T22:40:55.081Z,16.37
2018-06-03T22:43:23.549Z,16.10
2018-06-03T22:45:52.012Z,16.93
2018-06-03T22:48:20.493Z,15.80
2018-06-03T22:50:48.974Z,19.35
2018-06-03T22:53:17.784Z,16.17
2018-06-03T22:55:46.537Z,16.82
2018-06-03T22:58:15.799Z,15.45
2018-06-03T23:00:45.410Z,16.52
2018-06-03T23:03:15.481Z,15.43
2018-06-03T23:05:43.943Z,15.35
2018-06-03T23:08:12.405Z,15.20
2018-06-03T23:10:47.840Z,14.65
2018-06-03T23:13:16.528Z,16.42
2018-06-03T23:15:45.341Z,15.10
2018-06-03T23:18:14.509Z,17.57
2018-06-03T23:20:42.792Z,19.92
2018-06-03T23:23:11.350Z,16.02
2018-06-03T23:25:40.782Z,15.23
2018-06-03T23:28:09.234Z,15.28
2018-06-03T23:30:37.680Z,16.40
2018-06-03T23:33:06.110Z,17.57
2018-06-03T23:35:34.581Z,16.70
2018-06-03T23:38:03.033Z,14.47
2018-06-03T23:40:31.468Z,20.30
2018-06-03T23:42:59.947Z,18.05
2018-06-03T23:45:28.393Z,19.25
2018-06-03T23:47:56.862Z,16.40
2018-06-03T23:50:25.324Z,17.40
2018-06-03T23:52:53.781Z,15.70
2018-06-03T23:55:22.225Z,19.32
2018-06-03T23:57:50.680Z,16.77
